createdAt,value
2018-05-31T00:00:28.410Z,24.68
2018-05-31T00:01:28.151Z,24.74
2018-05-31T00:02:28.450Z,24.7
2018-05-31T00:03:28.471Z,24.6
2018-05-31T00:04:28.837Z,24.69
2018-05-31T00:05:27.971Z,24.63
2018-05-31T00:06:28.291Z,24.61
2018-05-31T00:07:28.314Z,24.55
2018-05-31T00:08:28.349Z,24.55
2018-05-31T00:09:28.830Z,24.63
2018-05-31T00:10:28.670Z,24.51
2018-05-31T00:11:28.663Z,24.55
2018-05-31T00:12:28.712Z,24.53
2018-05-31T00:13:29.224Z,24.54
2018-05-31T00:14:28.764Z,24.53
2018-05-31T00:15:28.492Z,24.5
2018-05-31T00:16:28.563Z,24.42
2018-05-31T00:17:28.572Z,24.4
2018-05-31T00:18:28.320Z,24.45
2018-05-31T00:19:28.752Z,24.47
2018-05-31T00:20:28.942Z,24.42
2018-05-31T00:21:28.942Z,24.4
2018-05-31T00:22:29.453Z,24.38
2018-05-31T00:23:29.144Z,24.36
2018-05-31T00:24:28.741Z,24.4
2018-05-31T00:25:29.027Z,24.36
2018-05-31T00:26:29.101Z,24.32
2018-05-31T00:27:28.537Z,24.28
2018-05-31T00:28:28.861Z,24.24
2018-05-31T00:29:28.891Z,24.3
2018-05-31T00:30:29.169Z,24.28
2018-05-31T00:31:29.441Z,24.2
2018-05-31T00:32:29.524Z,24.29
2018-05-31T00:33:29.269Z,24.18
2018-05-31T00:34:29.018Z,24.2
2018-05-31T00:35:29.337Z,24.17
2018-05-31T00:36:29.033Z,24.18
2018-05-31T00:37:29.357Z,24.16
2018-05-31T00:38:29.380Z,24.16
2018-05-31T00:39:29.433Z,24.18
2018-05-31T00:40:29.445Z,24.08
2018-05-31T00:41:29.811Z,24.06
2018-05-31T00:42:29.485Z,24.02
2018-05-31T00:43:29.242Z,24.03
2018-05-31T00:44:29.262Z,24.02
2018-05-31T00:45:29.561Z,24.01
2018-05-31T00:46:29.036Z,24.05
2018-05-31T00:47:29.334Z,24.01
2018-05-31T00:48:29.665Z,23.99
2018-05-31T00:49:29.653Z,23.95
2018-05-31T00:50:30.668Z,23.92
2018-05-31T00:51:29.784Z,23.88
2018-05-31T00:52:29.769Z,23.92
2018-05-31T00:53:29.475Z,23.92
2018-05-31T00:54:29.510Z,23.87
2018-05-31T00:55:29.832Z,23.87
2018-05-31T00:56:29.586Z,23.91
2018-05-31T00:57:29.855Z,23.87
2018-05-31T00:58:29.625Z,23.83
2018-05-31T00:59:30.058Z,23.8
2018-05-31T01:00:29.952Z,23.8
2018-05-31T01:01:29.997Z,23.81
2018-05-31T01:02:30.022Z,23.81
2018-05-31T01:03:30.053Z,23.8
2018-05-31T01:04:30.093Z,23.78
2018-05-31T01:05:30.098Z,23.77
2018-05-31T01:06:30.104Z,23.73
2018-05-31T01:07:30.158Z,23.76
2018-05-31T01:08:30.524Z,23.76
2018-05-31T01:09:30.720Z,23.84
2018-05-31T01:10:30.204Z,23.74
2018-05-31T01:11:29.932Z,23.76
2018-05-31T01:12:30.259Z,23.73
2018-05-31T01:13:30.288Z,23.69
2018-05-31T01:14:30.026Z,23.69
2018-05-31T01:15:30.042Z,23.69
2018-05-31T01:16:30.374Z,23.71
2018-05-31T01:17:30.394Z,23.65
2018-05-31T01:18:30.846Z,23.63
2018-05-31T01:19:30.146Z,23.61
2018-05-31T01:20:30.467Z,23.59
2018-05-31T01:21:30.516Z,23.61
2018-05-31T01:22:30.493Z,23.63
2018-05-31T01:23:30.240Z,23.54
2018-05-31T01:24:30.268Z,23.61
2018-05-31T01:25:30.325Z,23.55
2018-05-31T01:26:30.590Z,23.5
2018-05-31T01:27:31.522Z,23.56
2018-05-31T01:28:30.374Z,23.48
2018-05-31T01:29:30.399Z,23.46
2018-05-31T01:30:30.711Z,23.56
2018-05-31T01:31:30.462Z,23.5
2018-05-31T01:32:30.766Z,23.5
2018-05-31T01:33:30.524Z,23.44
2018-05-31T01:34:30.790Z,23.48
2018-05-31T01:35:30.563Z,23.36
2018-05-31T01:36:30.307Z,23.41
2018-05-31T01:37:30.612Z,23.39
2018-05-31T01:38:30.631Z,23.41
2018-05-31T01:39:30.936Z,23.32
2018-05-31T01:40:30.969Z,23.25
2018-05-31T01:41:30.436Z,23.31
2018-05-31T01:42:30.775Z,23.25
2018-05-31T01:43:31.052Z,23.28
2018-05-31T01:44:30.797Z,23.37
2018-05-31T01:45:31.275Z,23.27
2018-05-31T01:46:30.836Z,23.27
2018-05-31T01:47:31.141Z,23.27
2018-05-31T01:48:31.192Z,23.31
2018-05-31T01:49:31.231Z,23.25
2018-05-31T01:50:31.214Z,23.31
2018-05-31T01:51:31.260Z,23.2
2018-05-31T01:52:31.263Z,23.25
2018-05-31T01:53:31.036Z,23.18
2018-05-31T01:54:31.437Z,23.2
2018-05-31T01:55:31.882Z,23.17
2018-05-31T01:56:31.373Z,23.21
2018-05-31T01:57:31.433Z,23.21
2018-05-31T01:58:31.154Z,23.1
2018-05-31T01:59:31.148Z,23.13
2018-05-31T02:00:31.173Z,23.03
2018-05-31T02:01:31.213Z,23.12
2018-05-31T02:02:31.528Z,23.13
2018-05-31T02:03:31.541Z,23.12
2018-05-31T02:04:31.887Z,23.08
2018-05-31T02:05:31.298Z,23.09
2018-05-31T02:06:31.620Z,22.98
2018-05-31T02:07:31.359Z,23.02
2018-05-31T02:08:31.384Z,23.05
2018-05-31T02:09:31.400Z,22.99
2018-05-31T02:10:31.839Z,22.99
2018-05-31T02:11:31.187Z,23.06
2018-05-31T02:12:31.782Z,22.99
2018-05-31T02:13:32.077Z,22.94
2018-05-31T02:14:31.599Z,22.96
2018-05-31T02:15:31.276Z,22.98
2018-05-31T02:16:31.883Z,22.93
2018-05-31T02:17:31.887Z,22.88
2018-05-31T02:18:31.630Z,22.85
2018-05-31T02:19:31.384Z,22.91
2018-05-31T02:20:31.692Z,22.88
2018-05-31T02:21:31.997Z,22.93
2018-05-31T02:22:32.269Z,22.85
2018-05-31T02:23:31.489Z,22.84
2018-05-31T02:24:31.803Z,22.83
2018-05-31T02:25:32.296Z,22.87
2018-05-31T02:26:32.131Z,22.76
2018-05-31T02:27:32.127Z,22.85
2018-05-31T02:28:32.180Z,22.78
2018-05-31T02:29:32.220Z,22.78
2018-05-31T02:30:31.932Z,22.8
2018-05-31T02:31:31.687Z,22.78
2018-05-31T02:32:32.245Z,22.72
2018-05-31T02:33:32.267Z,22.7
2018-05-31T02:34:32.303Z,22.7
2018-05-31T02:35:32.335Z,22.73
2018-05-31T02:36:32.067Z,22.7
2018-05-31T02:37:32.407Z,22.68
2018-05-31T02:38:32.388Z,22.69
2018-05-31T02:39:32.455Z,22.69
2018-05-31T02:40:33.321Z,22.69
2018-05-31T02:41:32.200Z,22.69
2018-05-31T02:42:32.263Z,22.6
2018-05-31T02:43:31.969Z,22.75
2018-05-31T02:44:32.284Z,22.66
2018-05-31T02:45:32.592Z,22.62
2018-05-31T02:46:32.612Z,22.63
2018-05-31T02:47:32.358Z,22.65
2018-05-31T02:48:32.653Z,22.66
2018-05-31T02:49:32.731Z,22.6
2018-05-31T02:50:32.702Z,22.59
2018-05-31T02:51:32.443Z,22.6
2018-05-31T02:52:32.778Z,22.62
2018-05-31T02:53:32.213Z,22.5
2018-05-31T02:54:32.535Z,22.54
2018-05-31T02:55:32.828Z,22.53
2018-05-31T02:56:32.574Z,22.45
2018-05-31T02:57:32.873Z,22.53
2018-05-31T02:58:33.507Z,22.47
2018-05-31T02:59:32.638Z,22.45
2018-05-31T03:00:32.943Z,22.47
2018-05-31T03:01:33.020Z,22.45
2018-05-31T03:02:32.439Z,22.62
2018-05-31T03:03:33.044Z,22.48
2018-05-31T03:04:33.297Z,22.5
2018-05-31T03:05:33.094Z,22.51
2018-05-31T03:06:32.836Z,22.54
2018-05-31T03:07:33.281Z,22.48
2018-05-31T03:08:33.157Z,22.5
2018-05-31T03:09:33.167Z,22.5
2018-05-31T03:10:32.929Z,22.48
2018-05-31T03:11:33.257Z,22.48
2018-05-31T03:12:32.965Z,22.43
2018-05-31T03:13:33.280Z,22.39
2018-05-31T03:14:33.287Z,22.44
2018-05-31T03:15:33.353Z,22.43
2018-05-31T03:16:33.769Z,22.41
2018-05-31T03:17:33.366Z,22.43
2018-05-31T03:18:33.412Z,22.39
2018-05-31T03:19:33.430Z,22.39
2018-05-31T03:20:33.436Z,22.33
2018-05-31T03:21:33.470Z,22.39
2018-05-31T03:22:33.471Z,22.39
2018-05-31T03:23:33.511Z,22.32
2018-05-31T03:24:33.561Z,22.33
2018-05-31T03:25:33.893Z,22.36
2018-05-31T03:26:34.098Z,22.39
2018-05-31T03:27:33.348Z,22.36
2018-05-31T03:28:33.678Z,22.32
2018-05-31T03:29:33.401Z,22.32
2018-05-31T03:30:33.406Z,22.38
2018-05-31T03:31:33.443Z,22.32
2018-05-31T03:32:33.462Z,22.35
2018-05-31T03:33:33.780Z,22.36
2018-05-31T03:34:33.480Z,22.35
2018-05-31T03:35:33.520Z,22.28
2018-05-31T03:36:33.834Z,22.29
2018-05-31T03:37:33.875Z,22.29
2018-05-31T03:38:33.900Z,22.22
2018-05-31T03:39:33.619Z,22.28
2018-05-31T03:40:33.633Z,22.26
2018-05-31T03:41:33.990Z,22.3
2018-05-31T03:42:34.006Z,22.26
2018-05-31T03:43:34.405Z,22.26
2018-05-31T03:44:34.061Z,22.28
2018-05-31T03:45:33.774Z,22.28
2018-05-31T03:46:33.792Z,22.23
2018-05-31T03:47:34.185Z,22.28
2018-05-31T03:48:34.108Z,22.28
2018-05-31T03:49:33.883Z,22.23
2018-05-31T03:50:34.205Z,22.25
2018-05-31T03:51:34.227Z,22.28
2018-05-31T03:52:33.937Z,22.29
2018-05-31T03:53:33.952Z,22.26
2018-05-31T03:54:34.285Z,22.22
2018-05-31T03:55:33.753Z,22.23
2018-05-31T03:56:34.334Z,22.23
2018-05-31T03:57:34.368Z,22.22
2018-05-31T03:58:33.800Z,22.26
2018-05-31T03:59:34.360Z,22.22
2018-05-31T04:00:34.433Z,22.25
2018-05-31T04:01:35.141Z,22.28
2018-05-31T04:02:34.458Z,22.25
2018-05-31T04:03:34.513Z,22.26
2018-05-31T04:04:34.252Z,22.23
2018-05-31T04:05:34.560Z,22.2
2018-05-31T04:06:34.303Z,22.26
2018-05-31T04:07:34.303Z,22.23
2018-05-31T04:08:34.610Z,22.26
2018-05-31T04:09:34.362Z,22.28
2018-05-31T04:10:35.071Z,22.22
2018-05-31T04:11:35.408Z,22.26
2018-05-31T04:12:34.144Z,22.26
2018-05-31T04:13:34.719Z,22.29
2018-05-31T04:14:34.450Z,22.28
2018-05-31T04:15:34.791Z,22.25
2018-05-31T04:16:34.790Z,22.28
2018-05-31T04:17:34.840Z,22.29
2018-05-31T04:18:34.551Z,22.28
2018-05-31T04:19:35.313Z,22.3
2018-05-31T04:20:35.608Z,22.38
2018-05-31T04:21:34.912Z,22.32
2018-05-31T04:22:34.678Z,22.33
2018-05-31T04:23:34.977Z,22.32
2018-05-31T04:24:34.719Z,22.35
2018-05-31T04:25:34.752Z,22.35
2018-05-31T04:26:34.789Z,22.3
2018-05-31T04:27:35.061Z,22.33
2018-05-31T04:28:35.242Z,22.36
2018-05-31T04:29:34.835Z,22.35
2018-05-31T04:30:35.149Z,22.35
2018-05-31T04:31:35.192Z,22.32
2018-05-31T04:32:35.197Z,22.32
2018-05-31T04:33:35.290Z,22.35
2018-05-31T04:34:35.242Z,22.39
2018-05-31T04:35:35.282Z,22.32
2018-05-31T04:36:35.273Z,22.35
2018-05-31T04:37:35.684Z,22.35
2018-05-31T04:38:35.991Z,22.36
2018-05-31T04:39:35.384Z,22.35
2018-05-31T04:40:35.389Z,22.39
2018-05-31T04:41:35.413Z,22.33
2018-05-31T04:42:35.580Z,22.39
2018-05-31T04:43:35.493Z,22.36
2018-05-31T04:44:35.469Z,22.44
2018-05-31T04:45:35.494Z,22.38
2018-05-31T04:46:36.049Z,22.38
2018-05-31T04:47:36.038Z,22.43
2018-05-31T04:48:35.585Z,22.38
2018-05-31T04:49:35.292Z,22.41
2018-05-31T04:50:35.334Z,22.35
2018-05-31T04:51:35.373Z,22.45
2018-05-31T04:52:35.677Z,22.36
2018-05-31T04:53:35.483Z,22.43
2018-05-31T04:54:35.455Z,22.38
2018-05-31T04:55:36.115Z,22.47
2018-05-31T04:56:36.118Z,22.48
2018-05-31T04:57:35.835Z,22.47
2018-05-31T04:58:35.830Z,22.51
2018-05-31T04:59:35.278Z,22.38
2018-05-31T05:00:35.862Z,22.47
2018-05-31T05:01:35.624Z,22.45
2018-05-31T05:02:35.629Z,22.51
2018-05-31T05:03:35.903Z,22.47
2018-05-31T05:04:36.322Z,22.43
2018-05-31T05:05:36.502Z,22.47
2018-05-31T05:06:36.038Z,22.51
2018-05-31T05:07:36.091Z,22.5
2018-05-31T05:08:36.037Z,22.55
2018-05-31T05:09:36.092Z,22.47
2018-05-31T05:10:36.091Z,22.45
2018-05-31T05:11:36.129Z,22.51
2018-05-31T05:12:36.156Z,22.5
2018-05-31T05:13:36.489Z,22.48
2018-05-31T05:14:36.521Z,22.48
2018-05-31T05:15:35.935Z,22.5
2018-05-31T05:16:36.236Z,22.47
2018-05-31T05:17:36.272Z,22.48
2018-05-31T05:18:36.299Z,22.51
2018-05-31T05:19:36.030Z,22.48
2018-05-31T05:20:36.060Z,22.55
2018-05-31T05:21:36.104Z,22.43
2018-05-31T05:22:36.110Z,22.43
2018-05-31T05:23:36.894Z,22.43
2018-05-31T05:24:36.467Z,22.54
2018-05-31T05:25:36.198Z,22.59
2018-05-31T05:26:36.309Z,22.55
2018-05-31T05:27:36.510Z,22.53
2018-05-31T05:28:36.524Z,22.54
2018-05-31T05:29:36.277Z,22.47
2018-05-31T05:30:36.586Z,22.59
2018-05-31T05:31:37.035Z,22.48
2018-05-31T05:32:37.296Z,22.44
2018-05-31T05:33:36.669Z,22.43
2018-05-31T05:34:36.678Z,22.5
2018-05-31T05:35:36.719Z,22.48
2018-05-31T05:36:36.744Z,22.51
2018-05-31T05:37:36.758Z,22.53
2018-05-31T05:38:36.774Z,22.47
2018-05-31T05:39:36.534Z,22.6
2018-05-31T05:40:37.207Z,22.62
2018-05-31T05:41:37.183Z,22.63
2018-05-31T05:42:36.336Z,22.6
2018-05-31T05:43:36.989Z,22.63
2018-05-31T05:44:36.635Z,22.57
2018-05-31T05:45:36.658Z,22.65
2018-05-31T05:46:36.960Z,22.69
2018-05-31T05:47:36.719Z,22.73
2018-05-31T05:48:36.454Z,22.69
2018-05-31T05:49:36.797Z,22.72
2018-05-31T05:50:37.091Z,22.69
2018-05-31T05:51:37.091Z,22.68
2018-05-31T05:52:36.840Z,22.72
2018-05-31T05:53:36.857Z,22.72
2018-05-31T05:54:37.184Z,22.78
2018-05-31T05:55:37.226Z,22.83
2018-05-31T05:56:37.052Z,22.73
2018-05-31T05:57:37.271Z,22.84
2018-05-31T05:58:37.649Z,22.85
2018-05-31T05:59:37.300Z,22.83
2018-05-31T06:00:37.361Z,22.84
2018-05-31T06:01:37.353Z,22.84
2018-05-31T06:02:37.354Z,22.88
2018-05-31T06:03:37.120Z,22.87
2018-05-31T06:04:36.843Z,22.9
2018-05-31T06:05:37.429Z,22.91
2018-05-31T06:06:37.452Z,22.96
2018-05-31T06:07:38.471Z,23.06
2018-05-31T06:08:37.230Z,22.98
2018-05-31T06:09:37.527Z,22.96
2018-05-31T06:10:37.292Z,23.02
2018-05-31T06:11:37.586Z,22.99
2018-05-31T06:12:37.616Z,23.06
2018-05-31T06:13:37.344Z,23
2018-05-31T06:14:37.621Z,22.99
2018-05-31T06:15:37.896Z,22.96
2018-05-31T06:16:38.869Z,22.98
2018-05-31T06:17:37.459Z,23.09
2018-05-31T06:18:37.770Z,23.03
2018-05-31T06:19:37.776Z,23.1
2018-05-31T06:20:37.524Z,23.2
2018-05-31T06:21:37.826Z,23.09
2018-05-31T06:22:37.556Z,23.12
2018-05-31T06:23:37.597Z,23.12
2018-05-31T06:24:38.143Z,23.1
2018-05-31T06:25:38.950Z,23.18
2018-05-31T06:26:38.038Z,23.17
2018-05-31T06:27:37.983Z,23.27
2018-05-31T06:28:37.710Z,23.25
2018-05-31T06:29:38.026Z,23.27
2018-05-31T06:30:38.360Z,23.23
2018-05-31T06:31:38.047Z,23.27
2018-05-31T06:32:37.802Z,23.23
2018-05-31T06:33:38.319Z,23.27
2018-05-31T06:34:38.109Z,23.41
2018-05-31T06:35:38.155Z,23.36
2018-05-31T06:36:37.901Z,23.41
2018-05-31T06:37:37.914Z,23.39
2018-05-31T06:38:37.945Z,23.36
2018-05-31T06:39:38.232Z,23.4
2018-05-31T06:40:38.264Z,23.51
2018-05-31T06:41:38.011Z,23.48
2018-05-31T06:42:38.312Z,23.44
2018-05-31T06:43:38.382Z,23.61
2018-05-31T06:44:38.358Z,23.46
2018-05-31T06:45:38.118Z,23.55
2018-05-31T06:46:38.138Z,23.56
2018-05-31T06:47:38.444Z,23.63
2018-05-31T06:48:38.490Z,23.65
2018-05-31T06:49:38.210Z,23.66
2018-05-31T06:50:38.517Z,23.68
2018-05-31T06:51:38.532Z,23.74
2018-05-31T06:52:38.579Z,23.78
2018-05-31T06:53:38.294Z,23.84
2018-05-31T06:54:38.077Z,23.77
2018-05-31T06:55:38.373Z,23.76
2018-05-31T06:56:38.657Z,23.8
2018-05-31T06:57:38.664Z,23.83
2018-05-31T06:58:38.719Z,23.81
2018-05-31T06:59:38.713Z,23.92
2018-05-31T07:00:38.763Z,23.91
2018-05-31T07:01:38.777Z,23.93
2018-05-31T07:02:38.802Z,24.02
2018-05-31T07:03:38.563Z,24.08
2018-05-31T07:04:38.858Z,24.17
2018-05-31T07:05:38.859Z,24.08
2018-05-31T07:06:38.913Z,24.21
2018-05-31T07:07:38.672Z,24.26
2018-05-31T07:08:38.674Z,24.29
2018-05-31T07:09:38.955Z,24.3
2018-05-31T07:10:39.001Z,24.38
2018-05-31T07:11:39.029Z,24.48
2018-05-31T07:12:39.058Z,24.42
2018-05-31T07:13:39.054Z,24.53
2018-05-31T07:14:38.817Z,24.63
2018-05-31T07:15:39.117Z,24.57
2018-05-31T07:16:39.132Z,24.6
2018-05-31T07:17:39.168Z,24.61
2018-05-31T07:18:39.196Z,24.74
2018-05-31T07:19:39.224Z,24.8
2018-05-31T07:20:39.267Z,24.76
2018-05-31T07:21:39.263Z,24.91
2018-05-31T07:22:39.299Z,24.89
2018-05-31T07:23:39.056Z,24.99
2018-05-31T07:24:39.344Z,25.08
2018-05-31T07:25:39.379Z,25.08
2018-05-31T07:26:39.385Z,25.16
2018-05-31T07:27:39.175Z,25.25
2018-05-31T07:28:39.460Z,25.28
2018-05-31T07:29:39.487Z,25.36
2018-05-31T07:30:38.953Z,25.44
2018-05-31T07:31:39.524Z,25.54
2018-05-31T07:32:39.566Z,25.51
2018-05-31T07:33:39.296Z,25.6
2018-05-31T07:34:39.342Z,25.65
2018-05-31T07:35:39.337Z,25.75
2018-05-31T07:36:39.638Z,25.87
2018-05-31T07:37:39.689Z,25.91
2018-05-31T07:38:39.172Z,25.99
2018-05-31T07:39:39.722Z,26.06
2018-05-31T07:40:39.733Z,26.06
2018-05-31T07:41:39.798Z,26.21
2018-05-31T07:42:39.806Z,26.22
2018-05-31T07:43:39.536Z,26.33
2018-05-31T07:44:39.851Z,26.4
2018-05-31T07:45:39.630Z,26.47
2018-05-31T07:46:39.634Z,26.52
2018-05-31T07:47:39.651Z,26.65
2018-05-31T07:48:39.677Z,26.62
2018-05-31T07:49:39.715Z,26.71
2018-05-31T07:50:39.454Z,26.84
2018-05-31T07:51:40.033Z,26.9
2018-05-31T07:52:39.796Z,26.96
2018-05-31T07:53:40.113Z,27.02
2018-05-31T07:54:39.554Z,27.1
2018-05-31T07:55:40.160Z,27.03
2018-05-31T07:56:40.186Z,27.15
2018-05-31T07:57:39.633Z,27.26
2018-05-31T07:58:40.196Z,27.26
2018-05-31T07:59:40.229Z,27.36
2018-05-31T08:00:40.004Z,27.45
2018-05-31T08:01:40.305Z,27.49
2018-05-31T08:02:40.313Z,27.49
2018-05-31T08:03:40.349Z,27.58
2018-05-31T08:04:40.384Z,27.65
2018-05-31T08:05:40.201Z,27.75
2018-05-31T08:06:40.153Z,27.85
2018-05-31T08:07:40.427Z,27.85
2018-05-31T08:08:40.462Z,27.96
2018-05-31T08:09:40.504Z,28.04
2018-05-31T08:10:40.529Z,28.02
2018-05-31T08:11:40.278Z,28.02
2018-05-31T08:12:40.582Z,28.19
2018-05-31T08:13:40.603Z,28.25
2018-05-31T08:14:40.367Z,28.27
2018-05-31T08:15:40.653Z,28.38
2018-05-31T08:16:40.710Z,28.42
2018-05-31T08:17:40.699Z,28.42
2018-05-31T08:18:40.744Z,28.47
2018-05-31T08:19:40.765Z,28.64
2018-05-31T08:20:40.279Z,28.76
2018-05-31T08:21:40.552Z,28.76
2018-05-31T08:22:40.838Z,28.85
2018-05-31T08:23:40.581Z,28.93
2018-05-31T08:24:40.895Z,28.98
2018-05-31T08:25:40.923Z,28.97
2018-05-31T08:26:40.681Z,29.07
2018-05-31T08:27:40.431Z,29.14
2018-05-31T08:28:40.999Z,29.31
2018-05-31T08:29:40.749Z,29.26
2018-05-31T08:30:40.809Z,29.32
2018-05-31T08:31:41.574Z,29.47
2018-05-31T08:32:41.143Z,29.51
2018-05-31T08:33:41.135Z,29.54
2018-05-31T08:34:41.223Z,29.6
2018-05-31T08:35:41.176Z,29.69
2018-05-31T08:36:40.941Z,29.76
2018-05-31T08:37:41.266Z,29.9
2018-05-31T08:38:41.297Z,29.98
2018-05-31T08:39:41.292Z,30.08
2018-05-31T08:40:41.046Z,30.16
2018-05-31T08:41:41.371Z,30.23
2018-05-31T08:42:41.102Z,30.28
2018-05-31T08:43:41.393Z,30.35
2018-05-31T08:44:41.453Z,30.51
2018-05-31T08:45:41.501Z,30.5
2018-05-31T08:46:41.490Z,30.65
2018-05-31T08:47:41.239Z,30.65
2018-05-31T08:48:41.282Z,30.73
2018-05-31T08:49:41.292Z,30.84
2018-05-31T08:50:41.326Z,30.85
2018-05-31T08:51:41.354Z,31.06
2018-05-31T08:52:41.401Z,31.09
2018-05-31T08:53:41.403Z,31.18
2018-05-31T08:54:41.457Z,31.22
2018-05-31T08:55:41.757Z,31.31
2018-05-31T08:56:41.502Z,31.34
2018-05-31T08:57:41.796Z,31.29
2018-05-31T08:58:41.816Z,31.4
2018-05-31T08:59:41.835Z,31.52
2018-05-31T09:00:41.895Z,31.56
2018-05-31T09:01:41.625Z,31.65
2018-05-31T09:02:41.689Z,31.73
2018-05-31T09:03:41.971Z,31.69
2018-05-31T09:04:42.064Z,31.84
2018-05-31T09:05:42.036Z,31.92
2018-05-31T09:06:42.050Z,31.99
2018-05-31T09:07:42.088Z,32.08
2018-05-31T09:08:41.836Z,32.15
2018-05-31T09:09:41.853Z,32.29
2018-05-31T09:10:42.170Z,32.31
2018-05-31T09:11:41.924Z,32.4
2018-05-31T09:12:41.952Z,32.48
2018-05-31T09:13:41.995Z,32.49
2018-05-31T09:14:42.327Z,32.58
2018-05-31T09:15:42.026Z,32.63
2018-05-31T09:16:42.074Z,32.71
2018-05-31T09:17:42.100Z,32.73
2018-05-31T09:18:41.865Z,32.92
2018-05-31T09:19:42.173Z,32.92
2018-05-31T09:20:42.197Z,32.97
2018-05-31T09:21:42.479Z,33.02
2018-05-31T09:22:42.527Z,33.08
2018-05-31T09:23:42.000Z,33.17
2018-05-31T09:24:42.628Z,33.27
2018-05-31T09:25:42.592Z,33.37
2018-05-31T09:26:42.355Z,33.39
2018-05-31T09:27:42.380Z,33.37
2018-05-31T09:28:42.796Z,33.47
2018-05-31T09:29:42.441Z,33.53
2018-05-31T09:30:42.764Z,33.64
2018-05-31T09:31:42.240Z,33.69
2018-05-31T09:32:42.533Z,33.84
2018-05-31T09:33:42.560Z,33.86
2018-05-31T09:34:42.861Z,33.95
2018-05-31T09:35:42.896Z,34.06
2018-05-31T09:36:42.383Z,34.11
2018-05-31T09:37:42.967Z,34.18
2018-05-31T09:38:42.979Z,34.25
2018-05-31T09:39:43.013Z,34.27
2018-05-31T09:40:43.052Z,34.33
2018-05-31T09:41:43.071Z,34.42
2018-05-31T09:42:43.104Z,34.5
2018-05-31T09:43:43.115Z,34.52
2018-05-31T09:44:43.193Z,34.66
2018-05-31T09:45:43.220Z,34.73
2018-05-31T09:46:43.325Z,34.74
2018-05-31T09:47:43.004Z,34.75
2018-05-31T09:48:43.012Z,34.9
2018-05-31T09:49:43.300Z,35.07
2018-05-31T09:50:43.116Z,35.1
2018-05-31T09:51:43.370Z,35.12
2018-05-31T09:52:43.437Z,35.24
2018-05-31T09:53:43.192Z,35.22
2018-05-31T09:54:43.489Z,35.3
2018-05-31T09:55:43.520Z,35.34
2018-05-31T09:56:43.539Z,35.42
2018-05-31T09:57:43.564Z,35.45
2018-05-31T09:58:43.590Z,35.55
2018-05-31T09:59:43.352Z,35.52
2018-05-31T10:00:43.640Z,35.6
2018-05-31T10:01:43.686Z,35.64
2018-05-31T10:02:43.455Z,35.76
2018-05-31T10:03:43.466Z,35.79
2018-05-31T10:04:43.777Z,35.9
2018-05-31T10:05:43.542Z,35.92
2018-05-31T10:06:43.861Z,35.95
2018-05-31T10:07:43.863Z,35.97
2018-05-31T10:08:43.906Z,36.18
2018-05-31T10:09:43.944Z,36.23
2018-05-31T10:10:44.012Z,36.25
2018-05-31T10:11:43.998Z,36.36
2018-05-31T10:12:44.021Z,36.4
2018-05-31T10:13:44.079Z,36.37
2018-05-31T10:14:44.093Z,36.58
2018-05-31T10:15:44.179Z,36.59
2018-05-31T10:16:44.175Z,36.72
2018-05-31T10:17:44.201Z,36.77
2018-05-31T10:18:44.221Z,36.76
2018-05-31T10:19:44.257Z,36.86
2018-05-31T10:20:44.010Z,36.93
2018-05-31T10:21:44.304Z,36.98
2018-05-31T10:22:44.349Z,37.01
2018-05-31T10:23:44.365Z,37.11
2018-05-31T10:24:44.126Z,37.11
2018-05-31T10:25:44.186Z,37.21
2018-05-31T10:26:44.481Z,37.21
2018-05-31T10:27:44.514Z,37.39
2018-05-31T10:28:44.550Z,37.35
2018-05-31T10:29:44.607Z,37.47
2018-05-31T10:30:44.392Z,37.55
2018-05-31T10:31:44.662Z,37.47
2018-05-31T10:32:44.664Z,37.6
2018-05-31T10:33:44.462Z,37.59
2018-05-31T10:34:44.739Z,37.72
2018-05-31T10:35:44.778Z,37.72
2018-05-31T10:36:44.819Z,37.82
2018-05-31T10:37:44.813Z,37.83
2018-05-31T10:38:44.863Z,37.8
2018-05-31T10:39:44.645Z,37.93
2018-05-31T10:40:44.933Z,38.08
2018-05-31T10:41:44.980Z,38.08
2018-05-31T10:42:44.987Z,38.17
2018-05-31T10:43:45.022Z,38.28
2018-05-31T10:44:45.053Z,38.24
2018-05-31T10:45:45.106Z,38.33
2018-05-31T10:46:45.136Z,38.36
2018-05-31T10:47:45.148Z,38.43
2018-05-31T10:48:45.179Z,38.48
2018-05-31T10:49:44.954Z,38.49
2018-05-31T10:50:45.266Z,38.61
2018-05-31T10:51:45.285Z,38.65
2018-05-31T10:52:45.337Z,38.61
2018-05-31T10:53:45.164Z,38.77
2018-05-31T10:54:45.397Z,38.82
2018-05-31T10:55:45.427Z,38.97
2018-05-31T10:56:45.463Z,39.03
2018-05-31T10:57:45.240Z,39.03
2018-05-31T10:58:45.264Z,39.11
2018-05-31T10:59:45.285Z,39.17
2018-05-31T11:00:45.625Z,39.19
2018-05-31T11:01:45.653Z,39.31
2018-05-31T11:02:45.383Z,39.29
2018-05-31T11:03:45.698Z,39.41
2018-05-31T11:04:45.473Z,39.38
2018-05-31T11:05:45.774Z,39.53
2018-05-31T11:06:45.785Z,39.56
2018-05-31T11:07:45.567Z,39.59
2018-05-31T11:08:46.011Z,39.72
2018-05-31T11:09:45.637Z,39.63
2018-05-31T11:10:45.671Z,39.78
2018-05-31T11:11:45.979Z,39.83
2018-05-31T11:12:46.007Z,39.85
2018-05-31T11:13:46.050Z,39.94
2018-05-31T11:14:46.090Z,39.97
2018-05-31T11:15:46.099Z,40.11
2018-05-31T11:16:46.150Z,40.21
2018-05-31T11:17:46.186Z,40.24
2018-05-31T11:18:45.938Z,40.27
2018-05-31T11:19:46.241Z,40.3
2018-05-31T11:20:46.333Z,40.31
2018-05-31T11:21:46.511Z,40.43
2018-05-31T11:22:46.366Z,40.61
2018-05-31T11:23:46.112Z,40.62
2018-05-31T11:24:46.421Z,40.61
2018-05-31T11:25:46.432Z,40.66
2018-05-31T11:26:46.482Z,40.78
2018-05-31T11:27:46.545Z,40.69
2018-05-31T11:28:46.558Z,40.7
2018-05-31T11:29:46.570Z,40.75
2018-05-31T11:30:46.644Z,40.87
2018-05-31T11:31:46.405Z,40.91
2018-05-31T11:32:46.414Z,41.02
2018-05-31T11:33:46.733Z,41.02
2018-05-31T11:34:46.671Z,41.09
2018-05-31T11:35:46.829Z,41.19
2018-05-31T11:36:46.866Z,41.09
2018-05-31T11:37:46.869Z,41.16
2018-05-31T11:38:46.907Z,41.21
2018-05-31T11:39:46.951Z,41.31
2018-05-31T11:40:46.971Z,41.33
2018-05-31T11:41:47.140Z,41.34
2018-05-31T11:42:46.796Z,41.29
2018-05-31T11:43:47.112Z,41.36
2018-05-31T11:44:46.857Z,41.28
2018-05-31T11:45:46.668Z,41.29
2018-05-31T11:46:47.175Z,41.26
2018-05-31T11:47:46.968Z,41.28
2018-05-31T11:48:47.276Z,41.28
2018-05-31T11:49:47.308Z,41.31
2018-05-31T11:50:47.361Z,41.29
2018-05-31T11:51:47.364Z,41.4
2018-05-31T11:52:47.437Z,41.41
2018-05-31T11:53:47.181Z,41.34
2018-05-31T11:54:47.493Z,41.43
2018-05-31T11:55:47.493Z,41.44
2018-05-31T11:56:47.289Z,41.49
2018-05-31T11:57:47.587Z,41.49
2018-05-31T11:58:47.609Z,41.63
2018-05-31T11:59:47.673Z,41.66
2018-05-31T12:00:47.715Z,41.7
2018-05-31T12:01:48.016Z,41.85
2018-05-31T12:02:47.778Z,41.72
2018-05-31T12:03:48.019Z,41.88
2018-05-31T12:04:47.853Z,41.95
2018-05-31T12:05:47.614Z,42.07
2018-05-31T12:06:47.634Z,42.02
2018-05-31T12:07:47.688Z,42.12
2018-05-31T12:08:47.713Z,42.14
2018-05-31T12:09:47.768Z,42.2
2018-05-31T12:10:48.190Z,42.29
2018-05-31T12:11:48.111Z,42.41
2018-05-31T12:12:47.857Z,42.47
2018-05-31T12:13:47.909Z,42.57
2018-05-31T12:14:47.667Z,42.6
2018-05-31T12:15:48.256Z,42.6
2018-05-31T12:16:48.290Z,42.6
2018-05-31T12:17:48.032Z,42.6
2018-05-31T12:18:48.102Z,42.62
2018-05-31T12:19:48.408Z,42.58
2018-05-31T12:20:48.423Z,42.62
2018-05-31T12:21:48.462Z,42.48
2018-05-31T12:22:48.220Z,42.47
2018-05-31T12:23:48.268Z,42.45
2018-05-31T12:24:48.572Z,42.29
2018-05-31T12:25:48.626Z,42.24
2018-05-31T12:26:48.092Z,42.12
2018-05-31T12:27:48.411Z,42.07
2018-05-31T12:28:48.728Z,42.04
2018-05-31T12:29:48.471Z,42.04
2018-05-31T12:30:48.782Z,41.97
2018-05-31T12:31:48.563Z,41.9
2018-05-31T12:32:48.879Z,41.82
2018-05-31T12:33:48.884Z,41.78
2018-05-31T12:34:48.663Z,41.78
2018-05-31T12:35:48.990Z,41.68
2018-05-31T12:36:48.729Z,41.71
2018-05-31T12:37:49.188Z,41.57
2018-05-31T12:38:48.819Z,41.57
2018-05-31T12:39:49.149Z,41.55
2018-05-31T12:40:49.174Z,41.55
2018-05-31T12:41:48.932Z,41.66
2018-05-31T12:42:48.730Z,41.71
2018-05-31T12:43:49.272Z,41.77
2018-05-31T12:44:49.327Z,41.88
2018-05-31T12:45:49.064Z,41.99
2018-05-31T12:46:49.386Z,41.98
2018-05-31T12:47:49.419Z,41.99
2018-05-31T12:48:49.173Z,41.92
2018-05-31T12:49:49.231Z,41.94
2018-05-31T12:50:49.249Z,41.77
2018-05-31T12:51:49.284Z,41.75
2018-05-31T12:52:49.622Z,41.83
2018-05-31T12:53:49.867Z,41.74
2018-05-31T12:54:49.392Z,41.78
2018-05-31T12:55:49.706Z,41.88